sensor_id;sensor_type;location;lat;lon;timestamp;P1;durP1;ratioP1;P2;durP2;ratioP2
38851;SDS011;24605;50.092;9.182;2022-09-09T00:01:37;3.08;;;0.98;;
38851;SDS011;24605;50.092;9.182;2022-09-09T00:04:13;3.10;;;0.90;;
38851;SDS011;24605;50.092;9.182;2022-09-09T00:06:46;3.97;;;0.80;;
38851;SDS011;24605;50.092;9.182;2022-09-09T00:09:23;3.25;;;0.80;;
38851;SDS011;24605;50.092;9.182;2022-09-09T00:11:54;3.25;;;0.70;;
38851;SDS011;24605;50.092;9.182;2022-09-09T00:14:31;3.03;;;0.80;;
38851;SDS011;24605;50.092;9.182;2022-09-09T00:17:04;3.65;;;0.98;;
38851;SDS011;24605;50.092;9.182;2022-09-09T00:19:37;3.50;;;0.80;;
38851;SDS011;24605;50.092;9.182;2022-09-09T00:22:12;5.13;;;0.93;;
38851;SDS011;24605;50.092;9.182;2022-09-09T00:24:44;3.30;;;0.90;;
38851;SDS011;24605;50.092;9.182;2022-09-09T00:27:16;4.32;;;0.85;;
38851;SDS011;24605;50.092;9.182;2022-09-09T00:29:51;3.97;;;1.00;;
38851;SDS011;24605;50.092;9.182;2022-09-09T00:32:20;4.93;;;1.13;;
38851;SDS011;24605;50.092;9.182;2022-09-09T00:34:48;1.58;;;0.70;;
38851;SDS011;24605;50.092;9.182;2022-09-09T00:37:17;3.85;;;1.10;;
38851;SDS011;24605;50.092;9.182;2022-09-09T00:39:46;3.40;;;1.20;;
38851;SDS011;24605;50.092;9.182;2022-09-09T00:42:17;3.83;;;0.90;;
38851;SDS011;24605;50.092;9.182;2022-09-09T00:44:51;2.92;;;0.80;;
38851;SDS011;24605;50.092;9.182;2022-09-09T00:50:13;2.90;;;0.98;;
38851;SDS011;24605;50.092;9.182;2022-09-09T00:52:51;3.65;;;0.90;;
38851;SDS011;24605;50.092;9.182;2022-09-09T00:55:27;3.10;;;0.75;;
38851;SDS011;24605;50.092;9.182;2022-09-09T00:57:59;2.65;;;0.82;;
38851;SDS011;24605;50.092;9.182;2022-09-09T01:00:26;3.17;;;1.10;;
38851;SDS011;24605;50.092;9.182;2022-09-09T01:03:04;3.92;;;1.02;;
38851;SDS011;24605;50.092;9.182;2022-09-09T01:05:46;4.68;;;0.93;;
38851;SDS011;24605;50.092;9.182;2022-09-09T01:08:22;2.85;;;0.60;;
38851;SDS011;24605;50.092;9.182;2022-09-09T01:11:01;3.55;;;1.00;;
38851;SDS011;24605;50.092;9.182;2022-09-09T01:13:29;5.25;;;1.10;;
38851;SDS011;24605;50.092;9.182;2022-09-09T01:15:56;4.93;;;1.38;;
38851;SDS011;24605;50.092;9.182;2022-09-09T01:18:26;4.70;;;1.00;;
38851;SDS011;24605;50.092;9.182;2022-09-09T01:20:55;5.32;;;1.00;;
38851;SDS011;24605;50.092;9.182;2022-09-09T01:26:36;2.75;;;0.80;;
38851;SDS011;24605;50.092;9.182;2022-09-09T01:29:06;5.57;;;1.13;;
38851;SDS011;24605;50.092;9.182;2022-09-09T01:31:35;6.18;;;1.23;;
38851;SDS011;24605;50.092;9.182;2022-09-09T01:34:07;5.50;;;1.38;;
38851;SDS011;24605;50.092;9.182;2022-09-09T01:36:37;2.58;;;1.10;;
38851;SDS011;24605;50.092;9.182;2022-09-09T01:39:09;3.95;;;1.25;;
38851;SDS011;24605;50.092;9.182;2022-09-09T01:41:38;5.53;;;0.90;;
38851;SDS011;24605;50.092;9.182;2022-09-09T01:44:04;3.67;;;1.00;;
38851;SDS011;24605;50.092;9.182;2022-09-09T01:46:32;3.63;;;1.10;;
38851;SDS011;24605;50.092;9.182;2022-09-09T01:48:58;3.50;;;0.80;;
38851;SDS011;24605;50.092;9.182;2022-09-09T01:51:27;2.65;;;1.02;;
38851;SDS011;24605;50.092;9.182;2022-09-09T01:53:54;7.00;;;1.30;;
38851;SDS011;24605;50.092;9.182;2022-09-09T01:56:23;3.08;;;0.90;;
38851;SDS011;24605;50.092;9.182;2022-09-09T01:59:03;4.13;;;1.10;;
38851;SDS011;24605;50.092;9.182;2022-09-09T02:01:40;2.92;;;1.13;;
38851;SDS011;24605;50.092;9.182;2022-09-09T02:04:20;3.00;;;1.10;;
38851;SDS011;24605;50.092;9.182;2022-09-09T02:06:57;5.30;;;1.48;;
38851;SDS011;24605;50.092;9.182;2022-09-09T02:09:24;4.82;;;1.50;;
38851;SDS011;24605;50.092;9.182;2022-09-09T02:11:52;6.03;;;1.40;;
38851;SDS011;24605;50.092;9.182;2022-09-09T02:14:26;3.30;;;1.33;;
38851;SDS011;24605;50.092;9.182;2022-09-09T02:16:56;3.40;;;1.20;;
38851;SDS011;24605;50.092;9.182;2022-09-09T02:19:28;6.13;;;1.70;;
38851;SDS011;24605;50.092;9.182;2022-09-09T02:21:59;10.25;;;1.40;;
38851;SDS011;24605;50.092;9.182;2022-09-09T02:24:27;6.03;;;1.30;;
38851;SDS011;24605;50.092;9.182;2022-09-09T02:26:56;4.85;;;1.30;;
38851;SDS011;24605;50.092;9.182;2022-09-09T02:29:28;5.50;;;1.25;;
38851;SDS011;24605;50.092;9.182;2022-09-09T02:31:57;2.53;;;0.93;;
38851;SDS011;24605;50.092;9.182;2022-09-09T02:34:28;5.05;;;1.60;;
38851;SDS011;24605;50.092;9.182;2022-09-09T02:36:56;4.07;;;1.17;;
38851;SDS011;24605;50.092;9.182;2022-09-09T02:39:25;4.68;;;1.42;;
38851;SDS011;24605;50.092;9.182;2022-09-09T02:41:52;2.78;;;1.25;;
38851;SDS011;24605;50.092;9.182;2022-09-09T02:44:18;4.63;;;1.30;;
38851;SDS011;24605;50.092;9.182;2022-09-09T02:46:53;4.45;;;1.23;;
38851;SDS011;24605;50.092;9.182;2022-09-09T02:49:36;7.57;;;1.40;;
38851;SDS011;24605;50.092;9.182;2022-09-09T02:52:12;5.32;;;1.17;;
38851;SDS011;24605;50.092;9.182;2022-09-09T02:54:41;6.45;;;1.75;;
38851;SDS011;24605;50.092;9.182;2022-09-09T02:57:10;5.70;;;1.42;;
38851;SDS011;24605;50.092;9.182;2022-09-09T02:59:41;4.75;;;1.20;;
38851;SDS011;24605;50.092;9.182;2022-09-09T03:02:11;4.97;;;1.40;;
38851;SDS011;24605;50.092;9.182;2022-09-09T03:04:38;3.72;;;1.17;;
38851;SDS011;24605;50.092;9.182;2022-09-09T03:07:04;4.70;;;1.27;;
38851;SDS011;24605;50.092;9.182;2022-09-09T03:09:31;5.88;;;1.15;;
38851;SDS011;24605;50.092;9.182;2022-09-09T03:11:58;4.47;;;1.55;;
38851;SDS011;24605;50.092;9.182;2022-09-09T03:14:25;5.68;;;1.35;;
38851;SDS011;24605;50.092;9.182;2022-09-09T03:16:52;4.32;;;1.23;;
38851;SDS011;24605;50.092;9.182;2022-09-09T03:19:20;3.70;;;1.30;;
38851;SDS011;24605;50.092;9.182;2022-09-09T03:21:47;7.15;;;1.42;;
38851;SDS011;24605;50.092;9.182;2022-09-09T03:24:14;4.50;;;1.20;;
38851;SDS011;24605;50.092;9.182;2022-09-09T03:26:42;5.38;;;1.10;;
38851;SDS011;24605;50.092;9.182;2022-09-09T03:29:10;5.45;;;1.10;;
38851;SDS011;24605;50.092;9.182;2022-09-09T03:31:37;4.18;;;1.10;;
38851;SDS011;24605;50.092;9.182;2022-09-09T03:34:04;6.68;;;1.27;;
38851;SDS011;24605;50.092;9.182;2022-09-09T03:36:32;3.55;;;1.00;;
38851;SDS011;24605;50.092;9.182;2022-09-09T03:38:59;5.60;;;1.30;;
38851;SDS011;24605;50.092;9.182;2022-09-09T03:41:27;7.18;;;1.48;;
38851;SDS011;24605;50.092;9.182;2022-09-09T03:43:54;3.97;;;1.17;;
38851;SDS011;24605;50.092;9.182;2022-09-09T03:46:22;4.35;;;1.00;;
38851;SDS011;24605;50.092;9.182;2022-09-09T03:48:50;5.20;;;1.27;;
38851;SDS011;24605;50.092;9.182;2022-09-09T03:51:18;3.05;;;1.15;;
38851;SDS011;24605;50.092;9.182;2022-09-09T03:53:46;5.20;;;1.52;;
38851;SDS011;24605;50.092;9.182;2022-09-09T03:56:12;3.63;;;1.20;;
38851;SDS011;24605;50.092;9.182;2022-09-09T03:58:39;6.93;;;1.30;;
38851;SDS011;24605;50.092;9.182;2022-09-09T04:01:07;4.30;;;1.35;;
38851;SDS011;24605;50.092;9.182;2022-09-09T04:03:34;5.35;;;1.20;;
38851;SDS011;24605;50.092;9.182;2022-09-09T04:06:02;4.32;;;1.30;;
38851;SDS011;24605;50.092;9.182;2022-09-09T04:08:29;4.07;;;1.30;;
38851;SDS011;24605;50.092;9.182;2022-09-09T04:10:58;6.13;;;1.45;;
38851;SDS011;24605;50.092;9.182;2022-09-09T04:13:27;6.80;;;1.52;;
38851;SDS011;24605;50.092;9.182;2022-09-09T04:15:54;6.07;;;1.60;;
38851;SDS011;24605;50.092;9.182;2022-09-09T04:18:22;5.40;;;2.00;;
38851;SDS011;24605;50.092;9.182;2022-09-09T04:20:49;6.78;;;1.50;;
38851;SDS011;24605;50.092;9.182;2022-09-09T04:23:17;5.45;;;1.70;;
38851;SDS011;24605;50.092;9.182;2022-09-09T04:25:45;7.85;;;1.48;;
38851;SDS011;24605;50.092;9.182;2022-09-09T04:28:14;3.58;;;1.38;;
38851;SDS011;24605;50.092;9.182;2022-09-09T04:30:41;9.55;;;1.58;;
38851;SDS011;24605;50.092;9.182;2022-09-09T04:33:07;5.40;;;1.75;;
38851;SDS011;24605;50.092;9.182;2022-09-09T04:35:35;3.38;;;1.27;;
38851;SDS011;24605;50.092;9.182;2022-09-09T04:38:02;5.05;;;1.35;;
38851;SDS011;24605;50.092;9.182;2022-09-09T04:40:29;7.25;;;1.80;;
38851;SDS011;24605;50.092;9.182;2022-09-09T04:42:57;3.95;;;1.38;;
38851;SDS011;24605;50.092;9.182;2022-09-09T04:45:25;4.28;;;1.30;;
38851;SDS011;24605;50.092;9.182;2022-09-09T04:47:53;4.10;;;1.50;;
38851;SDS011;24605;50.092;9.182;2022-09-09T04:50:20;7.90;;;1.92;;
38851;SDS011;24605;50.092;9.182;2022-09-09T04:52:46;5.15;;;1.58;;
38851;SDS011;24605;50.092;9.182;2022-09-09T04:55:13;7.63;;;1.50;;
38851;SDS011;24605;50.092;9.182;2022-09-09T04:57:40;7.80;;;1.48;;
38851;SDS011;24605;50.092;9.182;2022-09-09T05:00:07;9.65;;;2.05;;
38851;SDS011;24605;50.092;9.182;2022-09-09T05:02:38;6.00;;;1.35;;
38851;SDS011;24605;50.092;9.182;2022-09-09T05:05:04;4.28;;;1.27;;
38851;SDS011;24605;50.092;9.182;2022-09-09T05:07:31;5.63;;;1.50;;
38851;SDS011;24605;50.092;9.182;2022-09-09T05:09:58;6.22;;;1.60;;
38851;SDS011;24605;50.092;9.182;2022-09-09T05:12:25;6.10;;;1.42;;
38851;SDS011;24605;50.092;9.182;2022-09-09T05:14:51;7.15;;;1.60;;
38851;SDS011;24605;50.092;9.182;2022-09-09T05:17:18;7.57;;;1.50;;
38851;SDS011;24605;50.092;9.182;2022-09-09T05:19:46;5.45;;;1.40;;
38851;SDS011;24605;50.092;9.182;2022-09-09T05:22:12;4.43;;;1.38;;
38851;SDS011;24605;50.092;9.182;2022-09-09T05:24:39;3.08;;;1.08;;
38851;SDS011;24605;50.092;9.182;2022-09-09T05:27:05;7.18;;;1.83;;
38851;SDS011;24605;50.092;9.182;2022-09-09T05:29:32;7.47;;;1.50;;
38851;SDS011;24605;50.092;9.182;2022-09-09T05:31:58;6.20;;;1.60;;
38851;SDS011;24605;50.092;9.182;2022-09-09T05:34:25;5.75;;;1.40;;
38851;SDS011;24605;50.092;9.182;2022-09-09T05:36:53;5.20;;;1.40;;
38851;SDS011;24605;50.092;9.182;2022-09-09T05:39:20;5.65;;;1.25;;
38851;SDS011;24605;50.092;9.182;2022-09-09T05:41:47;3.58;;;1.38;;
38851;SDS011;24605;50.092;9.182;2022-09-09T05:44:13;4.90;;;1.30;;
38851;SDS011;24605;50.092;9.182;2022-09-09T05:46:39;4.45;;;1.40;;
38851;SDS011;24605;50.092;9.182;2022-09-09T05:49:06;6.25;;;1.25;;
38851;SDS011;24605;50.092;9.182;2022-09-09T05:51:33;5.65;;;1.05;;
38851;SDS011;24605;50.092;9.182;2022-09-09T05:54:01;5.28;;;1.23;;
38851;SDS011;24605;50.092;9.182;2022-09-09T05:56:28;4.60;;;1.42;;
38851;SDS011;24605;50.092;9.182;2022-09-09T05:58:55;5.00;;;1.80;;
38851;SDS011;24605;50.092;9.182;2022-09-09T06:01:22;5.30;;;1.65;;
38851;SDS011;24605;50.092;9.182;2022-09-09T06:03:51;7.10;;;1.80;;
38851;SDS011;24605;50.092;9.182;2022-09-09T06:06:19;6.78;;;1.48;;
38851;SDS011;24605;50.092;9.182;2022-09-09T06:08:47;6.50;;;1.60;;
38851;SDS011;24605;50.092;9.182;2022-09-09T06:11:18;9.73;;;1.90;;
38851;SDS011;24605;50.092;9.182;2022-09-09T06:13:45;5.60;;;1.30;;
38851;SDS011;24605;50.092;9.182;2022-09-09T06:16:14;6.43;;;1.83;;
38851;SDS011;24605;50.092;9.182;2022-09-09T06:18:41;3.90;;;1.27;;
38851;SDS011;24605;50.092;9.182;2022-09-09T06:21:11;6.15;;;1.58;;
38851;SDS011;24605;50.092;9.182;2022-09-09T06:23:41;6.88;;;1.67;;
38851;SDS011;24605;50.092;9.182;2022-09-09T06:26:09;5.05;;;1.33;;
38851;SDS011;24605;50.092;9.182;2022-09-09T06:28:38;6.13;;;1.23;;
38851;SDS011;24605;50.092;9.182;2022-09-09T06:31:08;5.72;;;1.55;;
38851;SDS011;24605;50.092;9.182;2022-09-09T06:33:37;8.30;;;1.40;;
38851;SDS011;24605;50.092;9.182;2022-09-09T06:36:06;5.55;;;1.30;;
38851;SDS011;24605;50.092;9.182;2022-09-09T06:38:36;8.65;;;1.77;;
38851;SDS011;24605;50.092;9.182;2022-09-09T06:41:03;4.95;;;1.50;;
38851;SDS011;24605;50.092;9.182;2022-09-09T06:43:31;7.88;;;1.40;;
38851;SDS011;24605;50.092;9.182;2022-09-09T06:46:00;4.00;;;1.20;;
38851;SDS011;24605;50.092;9.182;2022-09-09T06:48:28;4.43;;;1.20;;
38851;SDS011;24605;50.092;9.182;2022-09-09T06:51:01;5.55;;;1.38;;
38851;SDS011;24605;50.092;9.182;2022-09-09T06:53:29;5.68;;;1.30;;
38851;SDS011;24605;50.092;9.182;2022-09-09T06:55:58;6.40;;;1.38;;
38851;SDS011;24605;50.092;9.182;2022-09-09T06:58:26;6.88;;;1.48;;
38851;SDS011;24605;50.092;9.182;2022-09-09T07:00:53;9.48;;;1.58;;
38851;SDS011;24605;50.092;9.182;2022-09-09T07:03:21;4.35;;;1.23;;
38851;SDS011;24605;50.092;9.182;2022-09-09T07:05:53;4.30;;;1.42;;
38851;SDS011;24605;50.092;9.182;2022-09-09T07:08:21;8.15;;;1.73;;
38851;SDS011;24605;50.092;9.182;2022-09-09T07:10:47;4.55;;;1.10;;
38851;SDS011;24605;50.092;9.182;2022-09-09T07:13:14;4.95;;;1.23;;
38851;SDS011;24605;50.092;9.182;2022-09-09T07:15:41;4.93;;;1.35;;
38851;SDS011;24605;50.092;9.182;2022-09-09T07:18:07;8.88;;;1.60;;
38851;SDS011;24605;50.092;9.182;2022-09-09T07:20:36;5.47;;;1.60;;
38851;SDS011;24605;50.092;9.182;2022-09-09T07:23:03;5.38;;;1.20;;
38851;SDS011;24605;50.092;9.182;2022-09-09T07:25:29;6.30;;;1.50;;
38851;SDS011;24605;50.092;9.182;2022-09-09T07:27:56;4.25;;;1.27;;
38851;SDS011;24605;50.092;9.182;2022-09-09T07:30:22;5.55;;;1.25;;
38851;SDS011;24605;50.092;9.182;2022-09-09T07:32:50;5.45;;;1.13;;
38851;SDS011;24605;50.092;9.182;2022-09-09T07:35:17;9.15;;;1.60;;
38851;SDS011;24605;50.092;9.182;2022-09-09T07:37:44;4.45;;;1.38;;
38851;SDS011;24605;50.092;9.182;2022-09-09T07:40:11;5.47;;;1.52;;
38851;SDS011;24605;50.092;9.182;2022-09-09T07:42:37;5.00;;;1.10;;
38851;SDS011;24605;50.092;9.182;2022-09-09T07:45:04;3.80;;;1.05;;
38851;SDS011;24605;50.092;9.182;2022-09-09T07:47:31;4.05;;;1.33;;
38851;SDS011;24605;50.092;9.182;2022-09-09T07:49:58;5.05;;;1.52;;
38851;SDS011;24605;50.092;9.182;2022-09-09T07:52:24;10.88;;;1.73;;
38851;SDS011;24605;50.092;9.182;2022-09-09T07:54:52;6.90;;;1.50;;
38851;SDS011;24605;50.092;9.182;2022-09-09T07:57:21;5.32;;;1.40;;
38851;SDS011;24605;50.092;9.182;2022-09-09T07:59:48;5.25;;;0.90;;
38851;SDS011;24605;50.092;9.182;2022-09-09T08:02:14;5.60;;;1.30;;
38851;SDS011;24605;50.092;9.182;2022-09-09T08:04:40;5.13;;;1.13;;
38851;SDS011;24605;50.092;9.182;2022-09-09T08:07:07;8.15;;;1.20;;
38851;SDS011;24605;50.092;9.182;2022-09-09T08:09:33;5.55;;;1.00;;
38851;SDS011;24605;50.092;9.182;2022-09-09T08:12:01;3.88;;;0.98;;
38851;SDS011;24605;50.092;9.182;2022-09-09T08:14:28;6.43;;;1.20;;
38851;SDS011;24605;50.092;9.182;2022-09-09T08:16:54;5.82;;;1.48;;
38851;SDS011;24605;50.092;9.182;2022-09-09T08:19:22;9.18;;;1.80;;
38851;SDS011;24605;50.092;9.182;2022-09-09T08:21:49;7.20;;;1.55;;
38851;SDS011;24605;50.092;9.182;2022-09-09T08:24:16;7.18;;;1.70;;
38851;SDS011;24605;50.092;9.182;2022-09-09T08:26:45;8.85;;;1.40;;
38851;SDS011;24605;50.092;9.182;2022-09-09T08:29:15;4.85;;;1.77;;
38851;SDS011;24605;50.092;9.182;2022-09-09T08:31:42;10.43;;;1.95;;
38851;SDS011;24605;50.092;9.182;2022-09-09T08:34:10;7.30;;;1.60;;
38851;SDS011;24605;50.092;9.182;2022-09-09T08:36:38;4.97;;;1.83;;
38851;SDS011;24605;50.092;9.182;2022-09-09T08:39:07;6.57;;;1.67;;
38851;SDS011;24605;50.092;9.182;2022-09-09T08:41:40;8.55;;;1.60;;
38851;SDS011;24605;50.092;9.182;2022-09-09T08:44:25;4.95;;;1.63;;
38851;SDS011;24605;50.092;9.182;2022-09-09T08:47:03;7.95;;;1.55;;
38851;SDS011;24605;50.092;9.182;2022-09-09T08:49:44;8.70;;;2.00;;
38851;SDS011;24605;50.092;9.182;2022-09-09T08:52:18;6.55;;;1.42;;
38851;SDS011;24605;50.092;9.182;2022-09-09T08:54:47;7.70;;;1.50;;
38851;SDS011;24605;50.092;9.182;2022-09-09T08:57:17;10.10;;;2.00;;
38851;SDS011;24605;50.092;9.182;2022-09-09T08:59:53;8.02;;;1.58;;
38851;SDS011;24605;50.092;9.182;2022-09-09T09:02:23;7.15;;;1.60;;
38851;SDS011;24605;50.092;9.182;2022-09-09T09:04:57;11.75;;;1.63;;
38851;SDS011;24605;50.092;9.182;2022-09-09T09:07:32;6.88;;;1.30;;
38851;SDS011;24605;50.092;9.182;2022-09-09T09:10:10;7.95;;;1.50;;
38851;SDS011;24605;50.092;9.182;2022-09-09T09:12:44;6.82;;;1.30;;
38851;SDS011;24605;50.092;9.182;2022-09-09T09:15:16;11.57;;;1.65;;
38851;SDS011;24605;50.092;9.182;2022-09-09T09:17:46;10.13;;;1.88;;
38851;SDS011;24605;50.092;9.182;2022-09-09T09:20:13;6.65;;;1.40;;
38851;SDS011;24605;50.092;9.182;2022-09-09T09:22:44;7.75;;;1.33;;
38851;SDS011;24605;50.092;9.182;2022-09-09T09:25:15;6.40;;;1.55;;
38851;SDS011;24605;50.092;9.182;2022-09-09T09:27:47;6.90;;;1.33;;
38851;SDS011;24605;50.092;9.182;2022-09-09T09:30:22;7.90;;;1.45;;
38851;SDS011;24605;50.092;9.182;2022-09-09T09:32:52;7.95;;;1.52;;
38851;SDS011;24605;50.092;9.182;2022-09-09T09:35:20;7.63;;;1.20;;
38851;SDS011;24605;50.092;9.182;2022-09-09T09:37:46;5.93;;;1.40;;
38851;SDS011;24605;50.092;9.182;2022-09-09T09:40:14;7.57;;;1.48;;
38851;SDS011;24605;50.092;9.182;2022-09-09T09:42:49;5.88;;;1.30;;
38851;SDS011;24605;50.092;9.182;2022-09-09T09:45:23;6.43;;;1.55;;
38851;SDS011;24605;50.092;9.182;2022-09-09T09:47:59;8.45;;;1.35;;
38851;SDS011;24605;50.092;9.182;2022-09-09T09:50:28;9.73;;;1.45;;
38851;SDS011;24605;50.092;9.182;2022-09-09T09:52:56;9.38;;;1.73;;
38851;SDS011;24605;50.092;9.182;2022-09-09T09:55:25;5.65;;;1.13;;
38851;SDS011;24605;50.092;9.182;2022-09-09T09:57:52;13.80;;;1.63;;
38851;SDS011;24605;50.092;9.182;2022-09-09T10:00:20;4.65;;;0.98;;
38851;SDS011;24605;50.092;9.182;2022-09-09T10:02:49;3.08;;;0.60;;
38851;SDS011;24605;50.092;9.182;2022-09-09T10:05:18;10.60;;;0.82;;
38851;SDS011;24605;50.092;9.182;2022-09-09T10:07:46;6.22;;;0.98;;
38851;SDS011;24605;50.092;9.182;2022-09-09T10:10:27;5.18;;;1.02;;
38851;SDS011;24605;50.092;9.182;2022-09-09T10:13:06;5.32;;;1.05;;
38851;SDS011;24605;50.092;9.182;2022-09-09T10:15:41;7.00;;;1.33;;
38851;SDS011;24605;50.092;9.182;2022-09-09T10:18:22;5.80;;;1.05;;
38851;SDS011;24605;50.092;9.182;2022-09-09T10:21:02;6.90;;;1.25;;
38851;SDS011;24605;50.092;9.182;2022-09-09T10:23:40;8.73;;;1.52;;
38851;SDS011;24605;50.092;9.182;2022-09-09T10:26:23;7.95;;;1.77;;
38851;SDS011;24605;50.092;9.182;2022-09-09T10:29:07;6.30;;;1.30;;
38851;SDS011;24605;50.092;9.182;2022-09-09T10:31:48;6.60;;;1.45;;
38851;SDS011;24605;50.092;9.182;2022-09-09T10:34:24;8.77;;;1.30;;
38851;SDS011;24605;50.092;9.182;2022-09-09T10:37:13;7.18;;;1.42;;
38851;SDS011;24605;50.092;9.182;2022-09-09T10:39:54;8.55;;;1.48;;
38851;SDS011;24605;50.092;9.182;2022-09-09T10:42:29;14.35;;;2.33;;
38851;SDS011;24605;50.092;9.182;2022-09-09T10:45:01;6.45;;;1.40;;
38851;SDS011;24605;50.092;9.182;2022-09-09T10:47:46;8.07;;;2.35;;
38851;SDS011;24605;50.092;9.182;2022-09-09T10:50:33;9.80;;;1.90;;
38851;SDS011;24605;50.092;9.182;2022-09-09T10:53:21;8.77;;;1.35;;
38851;SDS011;24605;50.092;9.182;2022-09-09T10:58:23;9.35;;;1.73;;
38851;SDS011;24605;50.092;9.182;2022-09-09T11:00:58;10.13;;;1.50;;
38851;SDS011;24605;50.092;9.182;2022-09-09T11:03:34;7.28;;;1.88;;
38851;SDS011;24605;50.092;9.182;2022-09-09T11:06:05;6.32;;;1.20;;
38851;SDS011;24605;50.092;9.182;2022-09-09T11:08:37;7.22;;;1.30;;
38851;SDS011;24605;50.092;9.182;2022-09-09T11:11:06;7.00;;;1.23;;
38851;SDS011;24605;50.092;9.182;2022-09-09T11:13:39;6.80;;;1.10;;
38851;SDS011;24605;50.092;9.182;2022-09-09T11:16:15;6.32;;;1.20;;
38851;SDS011;24605;50.092;9.182;2022-09-09T11:18:49;7.65;;;1.45;;
38851;SDS011;24605;50.092;9.182;2022-09-09T11:21:17;4.68;;;0.88;;
38851;SDS011;24605;50.092;9.182;2022-09-09T11:23:50;5.72;;;1.10;;
38851;SDS011;24605;50.092;9.182;2022-09-09T11:26:22;5.15;;;1.00;;
38851;SDS011;24605;50.092;9.182;2022-09-09T11:28:57;4.70;;;0.82;;
38851;SDS011;24605;50.092;9.182;2022-09-09T11:31:40;4.35;;;0.90;;
38851;SDS011;24605;50.092;9.182;2022-09-09T11:34:19;5.82;;;1.02;;
38851;SDS011;24605;50.092;9.182;2022-09-09T11:37:12;5.18;;;1.10;;
38851;SDS011;24605;50.092;9.182;2022-09-09T11:39:56;8.48;;;1.23;;
38851;SDS011;24605;50.092;9.182;2022-09-09T11:42:34;8.35;;;1.20;;
38851;SDS011;24605;50.092;9.182;2022-09-09T11:45:08;5.85;;;1.02;;
38851;SDS011;24605;50.092;9.182;2022-09-09T11:47:37;4.88;;;1.17;;
38851;SDS011;24605;50.092;9.182;2022-09-09T11:50:27;5.45;;;1.23;;
38851;SDS011;24605;50.092;9.182;2022-09-09T11:53:03;6.20;;;1.15;;
38851;SDS011;24605;50.092;9.182;2022-09-09T11:55:32;7.03;;;1.33;;
38851;SDS011;24605;50.092;9.182;2022-09-09T11:58:02;6.95;;;1.17;;
38851;SDS011;24605;50.092;9.182;2022-09-09T12:00:33;5.82;;;1.08;;
38851;SDS011;24605;50.092;9.182;2022-09-09T12:03:02;4.85;;;0.73;;
38851;SDS011;24605;50.092;9.182;2022-09-09T12:05:37;3.58;;;0.40;;
38851;SDS011;24605;50.092;9.182;2022-09-09T12:08:07;1.63;;;0.50;;
38851;SDS011;24605;50.092;9.182;2022-09-09T12:10:37;2.72;;;0.45;;
38851;SDS011;24605;50.092;9.182;2022-09-09T12:13:15;3.95;;;0.73;;
38851;SDS011;24605;50.092;9.182;2022-09-09T12:15:46;3.25;;;0.30;;
38851;SDS011;24605;50.092;9.182;2022-09-09T12:18:14;5.05;;;0.68;;
38851;SDS011;24605;50.092;9.182;2022-09-09T12:20:52;1.70;;;0.75;;
38851;SDS011;24605;50.092;9.182;2022-09-09T12:23:25;3.92;;;0.75;;
38851;SDS011;24605;50.092;9.182;2022-09-09T12:26:07;4.93;;;0.85;;
38851;SDS011;24605;50.092;9.182;2022-09-09T12:28:54;3.67;;;0.70;;
38851;SDS011;24605;50.092;9.182;2022-09-09T12:31:29;5.45;;;0.90;;
38851;SDS011;24605;50.092;9.182;2022-09-09T12:34:08;4.38;;;0.85;;
38851;SDS011;24605;50.092;9.182;2022-09-09T12:36:38;3.40;;;0.80;;
38851;SDS011;24605;50.092;9.182;2022-09-09T12:39:10;4.72;;;1.05;;
38851;SDS011;24605;50.092;9.182;2022-09-09T12:41:50;4.13;;;1.00;;
38851;SDS011;24605;50.092;9.182;2022-09-09T12:44:18;5.78;;;0.90;;
38851;SDS011;24605;50.092;9.182;2022-09-09T12:46:45;4.70;;;1.00;;
38851;SDS011;24605;50.092;9.182;2022-09-09T12:49:21;3.95;;;1.20;;
38851;SDS011;24605;50.092;9.182;2022-09-09T12:51:55;5.20;;;1.20;;
38851;SDS011;24605;50.092;9.182;2022-09-09T12:54:23;5.65;;;1.20;;
38851;SDS011;24605;50.092;9.182;2022-09-09T12:56:50;4.45;;;1.05;;
38851;SDS011;24605;50.092;9.182;2022-09-09T12:59:21;6.00;;;0.95;;
38851;SDS011;24605;50.092;9.182;2022-09-09T13:01:55;5.72;;;1.30;;
38851;SDS011;24605;50.092;9.182;2022-09-09T13:04:21;8.50;;;1.20;;
38851;SDS011;24605;50.092;9.182;2022-09-09T13:06:48;6.55;;;1.33;;
38851;SDS011;24605;50.092;9.182;2022-09-09T13:09:16;5.28;;;1.33;;
38851;SDS011;24605;50.092;9.182;2022-09-09T13:11:43;8.15;;;1.30;;
38851;SDS011;24605;50.092;9.182;2022-09-09T13:14:15;8.52;;;1.13;;
38851;SDS011;24605;50.092;9.182;2022-09-09T13:16:53;5.55;;;0.93;;
38851;SDS011;24605;50.092;9.182;2022-09-09T13:19:21;7.50;;;1.38;;
38851;SDS011;24605;50.092;9.182;2022-09-09T13:21:50;7.07;;;1.08;;
38851;SDS011;24605;50.092;9.182;2022-09-09T13:24:25;7.55;;;1.23;;
38851;SDS011;24605;50.092;9.182;2022-09-09T13:26:55;4.45;;;1.17;;
38851;SDS011;24605;50.092;9.182;2022-09-09T13:29:22;6.35;;;1.38;;
38851;SDS011;24605;50.092;9.182;2022-09-09T13:31:49;6.03;;;1.42;;
38851;SDS011;24605;50.092;9.182;2022-09-09T13:34:25;8.48;;;1.60;;
38851;SDS011;24605;50.092;9.182;2022-09-09T13:36:54;6.47;;;1.60;;
38851;SDS011;24605;50.092;9.182;2022-09-09T13:39:28;6.65;;;1.60;;
38851;SDS011;24605;50.092;9.182;2022-09-09T13:41:55;3.13;;;0.88;;
38851;SDS011;24605;50.092;9.182;2022-09-09T13:44:22;7.80;;;1.40;;
38851;SDS011;24605;50.092;9.182;2022-09-09T13:47:01;4.10;;;1.00;;
38851;SDS011;24605;50.092;9.182;2022-09-09T13:49:29;6.00;;;1.30;;
38851;SDS011;24605;50.092;9.182;2022-09-09T13:52:08;6.28;;;1.40;;
38851;SDS011;24605;50.092;9.182;2022-09-09T13:54:38;6.10;;;1.30;;
38851;SDS011;24605;50.092;9.182;2022-09-09T13:57:05;7.65;;;1.38;;
38851;SDS011;24605;50.092;9.182;2022-09-09T13:59:39;7.65;;;1.30;;
38851;SDS011;24605;50.092;9.182;2022-09-09T14:02:06;6.60;;;1.85;;
38851;SDS011;24605;50.092;9.182;2022-09-09T14:04:33;7.18;;;1.40;;
38851;SDS011;24605;50.092;9.182;2022-09-09T14:07:00;7.45;;;1.50;;
38851;SDS011;24605;50.092;9.182;2022-09-09T14:09:27;7.47;;;1.25;;
38851;SDS011;24605;50.092;9.182;2022-09-09T14:11:55;7.00;;;1.40;;
38851;SDS011;24605;50.092;9.182;2022-09-09T14:14:22;4.95;;;1.17;;
38851;SDS011;24605;50.092;9.182;2022-09-09T14:16:50;9.15;;;1.40;;
38851;SDS011;24605;50.092;9.182;2022-09-09T14:19:16;5.32;;;1.40;;
38851;SDS011;24605;50.092;9.182;2022-09-09T14:21:43;6.55;;;1.05;;
38851;SDS011;24605;50.092;9.182;2022-09-09T14:24:09;3.88;;;0.80;;
38851;SDS011;24605;50.092;9.182;2022-09-09T14:26:36;5.03;;;0.90;;
38851;SDS011;24605;50.092;9.182;2022-09-09T14:29:04;7.18;;;1.10;;
38851;SDS011;24605;50.092;9.182;2022-09-09T14:31:30;6.15;;;1.10;;
38851;SDS011;24605;50.092;9.182;2022-09-09T14:33:57;5.88;;;1.58;;
38851;SDS011;24605;50.092;9.182;2022-09-09T14:36:24;9.07;;;1.10;;
38851;SDS011;24605;50.092;9.182;2022-09-09T14:38:50;4.38;;;1.00;;
38851;SDS011;24605;50.092;9.182;2022-09-09T14:41:18;5.80;;;0.93;;
38851;SDS011;24605;50.092;9.182;2022-09-09T14:43:47;4.20;;;1.05;;
38851;SDS011;24605;50.092;9.182;2022-09-09T14:46:16;5.85;;;0.75;;
38851;SDS011;24605;50.092;9.182;2022-09-09T14:48:43;8.27;;;1.00;;
38851;SDS011;24605;50.092;9.182;2022-09-09T14:51:14;5.97;;;1.20;;
38851;SDS011;24605;50.092;9.182;2022-09-09T14:53:42;3.08;;;0.80;;
38851;SDS011;24605;50.092;9.182;2022-09-09T14:56:10;5.88;;;1.20;;
38851;SDS011;24605;50.092;9.182;2022-09-09T14:58:38;3.72;;;0.90;;
38851;SDS011;24605;50.092;9.182;2022-09-09T15:01:05;4.82;;;1.10;;
38851;SDS011;24605;50.092;9.182;2022-09-09T15:03:36;4.30;;;0.90;;
38851;SDS011;24605;50.092;9.182;2022-09-09T15:06:06;5.15;;;1.20;;
38851;SDS011;24605;50.092;9.182;2022-09-09T15:08:34;5.65;;;0.80;;
38851;SDS011;24605;50.092;9.182;2022-09-09T15:11:01;4.20;;;0.85;;
38851;SDS011;24605;50.092;9.182;2022-09-09T15:13:28;4.55;;;0.90;;
38851;SDS011;24605;50.092;9.182;2022-09-09T15:15:54;5.45;;;0.90;;